sensor_id;sensor_type;location;lat;lon;timestamp;temperature;humidity
55016;DHT22;40919;43.236;21.590;2022-08-21T02:00:25;537.90;2406.40
55016;DHT22;40919;43.236;21.590;2022-08-21T02:02:52;537.70;2406.40
55016;DHT22;40919;43.236;21.590;2022-08-21T02:05:18;512.90;2380.80
55016;DHT22;40919;43.236;21.590;2022-08-21T02:07:48;537.60;2406.40
55016;DHT22;40919;43.236;21.590;2022-08-21T02:10:18;537.60;2406.40
55016;DHT22;40919;43.236;21.590;2022-08-21T02:12:45;537.60;2406.40
55016;DHT22;40919;43.236;21.590;2022-08-21T02:15:11;512.80;2355.20
55016;DHT22;40919;43.236;21.590;2022-08-21T02:17:42;512.90;2380.80
55016;DHT22;40919;43.236;21.590;2022-08-21T02:20:10;512.90;2380.80
55016;DHT22;40919;43.236;21.590;2022-08-21T09:20:47;589.00;2432.00
55016;DHT22;40919;43.236;21.590;2022-08-21T09:23:30;588.90;2432.00
55016;DHT22;40919;43.236;21.590;2022-08-21T09:26:22;588.90;2432.00
55016;DHT22;40919;43.236;21.590;2022-08-21T09:28:56;589.00;2432.00
55016;DHT22;40919;43.236;21.590;2022-08-21T09:34:24;589.00;2432.00
55016;DHT22;40919;43.236;21.590;2022-08-21T09:36:47;589.10;2432.00
55016;DHT22;40919;43.236;21.590;2022-08-21T10:55:00;666.30;2432.00
55016;DHT22;40919;43.236;21.590;2022-08-21T11:58:49;716.90;2432.00
55016;DHT22;40919;43.236;21.590;2022-08-21T12:01:20;717.20;2432.00
55016;DHT22;40919;43.236;21.590;2022-08-21T12:06:34;717.50;2432.00
55016;DHT22;40919;43.236;21.590;2022-08-21T12:36:17;742.90;2432.00
55016;DHT22;40919;43.236;21.590;2022-08-21T12:38:57;742.90;2432.00
55016;DHT22;40919;43.236;21.590;2022-08-21T12:54:55;768.10;2432.00
55016;DHT22;40919;43.236;21.590;2022-08-21T13:06:53;768.60;2432.00
55016;DHT22;40919;43.236;21.590;2022-08-21T13:09:30;768.50;2432.00
55016;DHT22;40919;43.236;21.590;2022-08-21T13:12:10;793.70;2432.00
55016;DHT22;40919;43.236;21.590;2022-08-21T13:18:24;768.20;2432.00
55016;DHT22;40919;43.236;21.590;2022-08-21T13:31:53;717.70;2432.00
55016;DHT22;40919;43.236;21.590;2022-08-21T13:47:51;691.90;2432.00
55016;DHT22;40919;43.236;21.590;2022-08-21T13:50:27;691.70;2432.00
55016;DHT22;40919;43.236;21.590;2022-08-21T13:53:01;666.00;2432.00
55016;DHT22;40919;43.236;21.590;2022-08-21T13:55:47;691.20;2432.00
55016;DHT22;40919;43.236;21.590;2022-08-21T13:58:27;666.50;2432.00
55016;DHT22;40919;43.236;21.590;2022-08-21T14:00:55;666.30;2432.00
55016;DHT22;40919;43.236;21.590;2022-08-21T14:03:42;666.20;2432.00
55016;DHT22;40919;43.236;21.590;2022-08-21T14:06:17;666.00;2432.00
55016;DHT22;40919;43.236;21.590;2022-08-21T14:08:50;665.70;2432.00
55016;DHT22;40919;43.236;21.590;2022-08-21T14:11:17;665.60;2432.00
55016;DHT22;40919;43.236;21.590;2022-08-21T14:34:59;615.00;2432.00
55016;DHT22;40919;43.236;21.590;2022-08-21T14:37:25;589.70;2432.00
55016;DHT22;40919;43.236;21.590;2022-08-21T14:39:51;589.70;2432.00
55016;DHT22;40919;43.236;21.590;2022-08-21T14:42:17;589.50;2432.00
55016;DHT22;40919;43.236;21.590;2022-08-21T14:44:43;589.50;2432.00
55016;DHT22;40919;43.236;21.590;2022-08-21T14:47:09;589.40;2432.00
55016;DHT22;40919;43.236;21.590;2022-08-21T14:49:35;589.20;2432.00
55016;DHT22;40919;43.236;21.590;2022-08-21T14:52:01;589.30;2432.00
55016;DHT22;40919;43.236;21.590;2022-08-21T14:54:30;589.20;2432.00
55016;DHT22;40919;43.236;21.590;2022-08-21T14:56:57;589.40;2432.00
55016;DHT22;40919;43.236;21.590;2022-08-21T14:59:24;589.60;2432.00
55016;DHT22;40919;43.236;21.590;2022-08-21T15:01:51;589.70;2432.00
55016;DHT22;40919;43.236;21.590;2022-08-21T15:04:17;589.70;2432.00
55016;DHT22;40919;43.236;21.590;2022-08-21T15:06:43;589.70;2432.00
55016;DHT22;40919;43.236;21.590;2022-08-21T15:09:09;614.40;2432.00
55016;DHT22;40919;43.236;21.590;2022-08-21T15:11:35;614.50;2432.00
55016;DHT22;40919;43.236;21.590;2022-08-21T15:14:06;614.50;2432.00
55016;DHT22;40919;43.236;21.590;2022-08-21T15:16:33;614.50;2432.00
55016;DHT22;40919;43.236;21.590;2022-08-21T15:19:00;614.50;2432.00
55016;DHT22;40919;43.236;21.590;2022-08-21T15:21:26;614.60;2432.00
55016;DHT22;40919;43.236;21.590;2022-08-21T15:23:52;614.60;2406.40
55016;DHT22;40919;43.236;21.590;2022-08-21T15:26:20;614.60;2432.00
55016;DHT22;40919;43.236;21.590;2022-08-21T15:28:47;614.60;2432.00
55016;DHT22;40919;43.236;21.590;2022-08-21T15:31:13;614.60;2432.00
55016;DHT22;40919;43.236;21.590;2022-08-21T15:33:39;614.70;2432.00
55016;DHT22;40919;43.236;21.590;2022-08-21T15:36:04;614.60;2432.00
55016;DHT22;40919;43.236;21.590;2022-08-21T15:38:30;614.60;2432.00
55016;DHT22;40919;43.236;21.590;2022-08-21T15:40:56;614.60;2432.00
55016;DHT22;40919;43.236;21.590;2022-08-21T15:43:25;614.60;2432.00
55016;DHT22;40919;43.236;21.590;2022-08-21T15:45:51;614.50;2432.00
55016;DHT22;40919;43.236;21.590;2022-08-21T15:48:17;589.70;2432.00
55016;DHT22;40919;43.236;21.590;2022-08-21T15:50:43;614.50;2432.00
55016;DHT22;40919;43.236;21.590;2022-08-21T15:53:09;614.40;2432.00
55016;DHT22;40919;43.236;21.590;2022-08-21T15:55:35;589.70;2432.00
55016;DHT22;40919;43.236;21.590;2022-08-21T15:58:04;589.70;2432.00
55016;DHT22;40919;43.236;21.590;2022-08-21T16:00:32;589.60;2432.00
55016;DHT22;40919;43.236;21.590;2022-08-21T16:02:59;589.60;2432.00
55016;DHT22;40919;43.236;21.590;2022-08-21T16:05:26;589.70;2432.00
55016;DHT22;40919;43.236;21.590;2022-08-21T16:07:52;589.60;2432.00
55016;DHT22;40919;43.236;21.590;2022-08-21T16:10:21;589.60;2432.00
55016;DHT22;40919;43.236;21.590;2022-08-21T16:12:54;589.50;2432.00
55016;DHT22;40919;43.236;21.590;2022-08-21T16:15:22;589.50;2432.00
55016;DHT22;40919;43.236;21.590;2022-08-21T16:17:49;589.50;2432.00
55016;DHT22;40919;43.236;21.590;2022-08-21T16:20:21;589.30;2432.00
55016;DHT22;40919;43.236;21.590;2022-08-21T16:25:14;589.40;2432.00
55016;DHT22;40919;43.236;21.590;2022-08-21T16:27:43;589.10;2432.00
55016;DHT22;40919;43.236;21.590;2022-08-21T16:30:11;589.20;2432.00
55016;DHT22;40919;43.236;21.590;2022-08-21T16:32:37;589.00;2432.00
